Time;durP1;ratioP1;P1;durP2;ratioP2;P2;SDS_P1;SDS_P2;PMS_P1;PMS_P2;Temp;Humidity;BMP_temperature;BMP_pressure;BME280_temperature;BME280_humidity;BME280_pressure;Samples;Min_cycle;Max_cycle;Signal;HPM_P1;HPM_P2
2024/04/05 00:04:14;;;;;;;1.33;0.90;;;;;;;11.15;100.00;100052.97;5101434;56;1141005;-81
2024/04/05 00:09:20;;;;;;;2.00;1.20;;;;;;;11.10;100.00;100064.46;5127478;56;1140902;-78
2024/04/05 00:14:26;;;;;;;2.87;1.07;;;;;;;11.11;100.00;100068.78;5147394;56;1140715;-78
2024/04/05 00:19:32;;;;;;;1.02;0.82;;;;;;;11.10;100.00;100071.08;5125169;56;1140914;-81
2024/04/05 00:24:37;;;;;;;1.20;1.07;;;;;;;11.11;100.00;100081.18;5127098;56;1140960;-81
2024/04/05 00:29:43;;;;;;;3.07;1.10;;;;;;;11.09;100.00;100082.62;5147517;56;1140680;-78
2024/04/05 00:34:49;;;;;;;1.20;0.90;;;;;;;11.05;100.00;100082.53;5127401;56;1140893;-81
2024/04/05 00:39:54;;;;;;;1.77;0.70;;;;;;;10.99;100.00;100089.70;5038497;57;1140828;-81
2024/04/05 00:45:00;;;;;;;4.63;1.43;;;;;;;10.96;100.00;100103.19;5147594;56;1140748;-81
2024/04/05 00:50:08;;;;;;;2.73;0.97;;;;;;;10.92;100.00;100107.89;5127189;56;1141031;-80
2024/04/05 00:55:14;;;;;;;2.67;1.15;;;;;;;10.88;100.00;100106.95;5106643;56;1140739;-79
2024/04/05 01:00:23;;;;;;;4.77;0.77;;;;;;;10.84;100.00;100118.80;5108011;56;1140888;-79
2024/04/05 01:05:27;;;;;;;1.97;1.00;;;;;;;10.81;100.00;100124.34;5120953;56;1140910;-78
2024/04/05 01:10:34;;;;;;;3.23;0.90;;;;;;;10.78;100.00;100136.02;5127267;56;1141147;-78
2024/04/05 01:15:41;;;;;;;1.93;0.87;;;;;;;10.72;100.00;100131.70;5147629;56;1140778;-81
2024/04/05 01:20:50;;;;;;;3.83;0.80;;;;;;;10.68;100.00;100134.28;5127386;56;1140820;-80
2024/04/05 01:25:57;;;;;;;2.83;1.60;;;;;;;10.66;100.00;100137.05;5126668;56;1141104;-81
2024/04/05 01:31:03;;;;;;;3.00;1.40;;;;;;;10.61;100.00;100146.33;5089030;56;1141214;-81
2024/04/05 01:36:08;;;;;;;1.73;0.80;;;;;;;10.55;100.00;100159.08;5038664;57;1141241;-81
2024/04/05 01:41:14;;;;;;;3.40;1.03;;;;;;;10.52;100.00;100165.13;5038075;57;1141154;-79
2024/04/05 01:46:20;;;;;;;4.40;0.82;;;;;;;10.46;100.00;100160.34;5058042;57;1140832;-79
2024/04/05 01:51:26;;;;;;;1.62;0.95;;;;;;;10.37;100.00;100168.56;5039353;56;1140831;-78
2024/04/05 01:56:33;;;;;;;1.95;0.90;;;;;;;10.31;100.00;100172.17;5042435;56;1140958;-79
2024/04/05 02:01:38;;;;;;;3.20;0.80;;;;;;;10.23;100.00;100164.38;5130797;56;1140990;-78
2024/04/05 02:06:44;;;;;;;4.90;1.43;;;;;;;10.20;100.00;100172.58;5126716;56;1140714;-79
2024/04/05 02:11:50;;;;;;;3.43;0.67;;;;;;;10.16;100.00;100168.95;5127586;56;1140915;-81
2024/04/05 02:17:00;;;;;;;0.83;0.60;;;;;;;10.10;100.00;100174.23;5127325;56;1140783;-79
2024/04/05 02:22:06;;;;;;;6.83;0.70;;;;;;;10.07;100.00;100181.60;5147330;56;1140702;-78
2024/04/05 02:27:12;;;;;;;0.97;0.70;;;;;;;10.02;100.00;100191.20;5070827;56;1150282;-78
2024/04/05 02:32:17;;;;;;;4.50;0.80;;;;;;;9.94;100.00;100189.65;5038565;57;1140989;-79
2024/04/05 02:37:23;;;;;;;3.87;0.82;;;;;;;9.94;100.00;100202.86;5058374;57;1139039;-81
2024/04/05 02:42:29;;;;;;;4.57;1.07;;;;;;;9.91;100.00;100206.25;5037990;57;1139031;-80
2024/04/05 02:47:34;;;;;;;1.47;0.60;;;;;;;9.87;100.00;100213.57;5039041;55;1138931;-80
2024/04/05 02:52:40;;;;;;;1.93;0.93;;;;;;;9.86;100.00;100219.33;5062811;56;1138712;-79
2024/04/05 02:57:45;;;;;;;2.10;0.60;;;;;;;9.87;100.00;100217.53;5085647;56;1138579;-81
2024/04/05 03:02:51;;;;;;;2.07;0.80;;;;;;;9.89;100.00;100220.89;5100061;56;1138761;-81
2024/04/05 03:07:57;;;;;;;2.40;0.90;;;;;;;9.91;100.00;100229.55;5126934;56;1138824;-79
2024/04/05 03:13:02;;;;;;;3.30;1.13;;;;;;;9.95;100.00;100232.76;5147208;56;1138942;-78
2024/04/05 03:18:08;;;;;;;2.07;0.83;;;;;;;9.96;100.00;100235.76;5121258;56;1138429;-81
2024/04/05 03:23:14;;;;;;;1.33;0.70;;;;;;;10.00;100.00;100247.29;5109320;56;1138989;-79
2024/04/05 03:28:19;;;;;;;1.92;0.72;;;;;;;10.06;100.00;100257.86;5062487;57;1140875;-81
2024/04/05 03:33:25;;;;;;;4.03;0.78;;;;;;;10.12;100.00;100256.03;5042544;56;1140736;-80
2024/04/05 03:38:31;;;;;;;2.87;0.80;;;;;;;10.14;100.00;100258.92;5042533;56;1140923;-80
2024/04/05 03:43:36;;;;;;;0.80;0.60;;;;;;;10.18;100.00;100259.08;5076558;56;1140941;-80
2024/04/05 03:48:44;;;;;;;5.30;0.97;;;;;;;10.18;100.00;100261.72;5097083;56;1140965;-79
2024/04/05 03:53:50;;;;;;;1.63;0.73;;;;;;;10.20;100.00;100254.99;5058440;56;1140562;-79
2024/04/05 03:58:55;;;;;;;6.60;1.00;;;;;;;10.21;100.00;100268.09;5064439;56;1147618;-79
2024/04/05 04:04:01;;;;;;;0.97;0.53;;;;;;;10.23;100.00;100268.45;5097204;56;1141115;-80
2024/04/05 04:09:08;;;;;;;3.27;0.80;;;;;;;10.26;100.00;100270.81;5054542;56;1140627;-81
2024/04/05 04:14:14;;;;;;;1.27;0.70;;;;;;;10.27;100.00;100283.91;5088329;56;1140932;-81
2024/04/05 04:19:21;;;;;;;2.60;0.85;;;;;;;10.29;100.00;100285.95;5092891;56;1140803;-80
2024/04/05 04:24:26;;;;;;;5.00;1.52;;;;;;;10.32;100.00;100302.06;5053516;56;1140781;-81
2024/04/05 04:29:32;;;;;;;3.83;0.87;;;;;;;10.29;100.00;100302.30;5061835;56;1140772;-81
2024/04/05 04:34:38;;;;;;;2.87;1.00;;;;;;;10.30;100.00;100310.11;5113231;56;1140847;-80
2024/04/05 04:39:46;;;;;;;1.23;0.80;;;;;;;10.31;100.00;100312.27;5053611;56;1140597;-81
2024/04/05 04:44:54;;;;;;;2.60;1.10;;;;;;;10.33;100.00;100323.56;5053746;56;1140967;-79
2024/04/05 04:49:58;;;;;;;5.33;1.37;;;;;;;10.35;100.00;100321.16;5071286;56;1141142;-78
2024/04/05 04:55:09;;;;;;;1.90;0.70;;;;;;;10.35;100.00;100329.09;5080026;56;1141253;-78
2024/04/05 05:00:14;;;;;;;2.27;0.80;;;;;;;10.38;100.00;100326.22;5065070;56;1141277;-78
2024/04/05 05:05:20;;;;;;;6.17;0.90;;;;;;;10.41;100.00;100337.00;5054626;56;1141163;-79
2024/04/05 05:10:26;;;;;;;5.28;1.32;;;;;;;10.42;100.00;100342.65;5118715;56;1140676;-81
2024/04/05 05:15:31;;;;;;;5.40;1.60;;;;;;;10.43;100.00;100343.01;5076502;56;1140983;-79
2024/04/05 05:20:37;;;;;;;3.83;1.07;;;;;;;10.46;100.00;100350.70;5075953;56;1141036;-79
2024/04/05 05:25:45;;;;;;;2.80;1.73;;;;;;;10.49;100.00;100345.17;5094810;56;1140982;-80
2024/04/05 05:30:51;;;;;;;5.07;1.37;;;;;;;10.52;100.00;100354.19;5055369;56;1140880;-79
2024/04/05 05:35:57;;;;;;;11.30;1.27;;;;;;;10.51;100.00;100356.48;5076492;55;1141094;-80
2024/04/05 05:41:02;;;;;;;2.93;0.70;;;;;;;10.52;100.00;100362.97;5104146;55;1142976;-78
2024/04/05 05:46:08;;;;;;;8.17;1.70;;;;;;;10.55;100.00;100373.75;5052593;57;1140504;-79
2024/04/05 05:51:14;;;;;;;3.07;1.70;;;;;;;10.58;100.00;100376.16;5053273;56;1140966;-80
2024/04/05 05:56:21;;;;;;;23.30;10.18;;;;;;;10.63;100.00;100379.29;5050656;56;1141597;-80
2024/04/05 06:01:27;;;;;;;21.07;7.97;;;;;;;10.67;100.00;100382.06;4986425;57;1145002;-81
2024/04/05 06:06:33;;;;;;;14.90;5.07;;;;;;;10.74;100.00;100395.61;5028257;57;1142957;-80
2024/04/05 06:11:38;;;;;;;14.73;4.70;;;;;;;10.79;100.00;100402.70;5034672;57;1143326;-81
2024/04/05 06:16:44;;;;;;;26.62;6.67;;;;;;;10.86;100.00;100413.14;5053989;57;1143195;-81
2024/04/05 06:21:50;;;;;;;17.03;4.27;;;;;;;10.88;100.00;100412.54;5029452;57;1143110;-81
2024/04/05 06:26:55;;;;;;;22.83;5.53;;;;;;;10.88;100.00;100420.48;4989307;57;1143042;-81
2024/04/05 06:32:01;;;;;;;21.57;6.03;;;;;;;10.91;100.00;100418.91;4992180;57;1142667;-81
2024/04/05 06:37:07;;;;;;;79.03;31.83;;;;;;;10.96;100.00;100418.07;4972307;57;1143373;-81
2024/04/05 06:42:13;;;;;;;21.70;4.75;;;;;;;11.03;100.00;100428.50;4988236;57;1144876;-80
2024/04/05 06:47:19;;;;;;;14.35;3.75;;;;;;;11.08;100.00;100438.25;5023001;57;1143079;-81
2024/04/05 06:52:25;;;;;;;14.75;3.50;;;;;;;11.13;100.00;100440.05;5040431;57;1143222;-80
2024/04/05 06:57:31;;;;;;;10.65;2.15;;;;;;;11.16;100.00;100443.74;5044956;56;1142870;-83
2024/04/05 07:02:37;;;;;;;11.07;4.77;;;;;;;11.22;100.00;100451.20;5101491;56;1143322;-80
2024/04/05 07:07:42;;;;;;;12.27;2.63;;;;;;;11.26;100.00;100460.58;5110690;56;1142901;-82
2024/04/05 07:12:52;;;;;;;12.43;3.03;;;;;;;11.32;100.00;100465.00;5068426;56;1143254;-82
2024/04/05 07:17:58;;;;;;;7.75;1.95;;;;;;;11.36;100.00;100471.25;5093770;56;1142911;-79
2024/04/05 07:23:05;;;;;;;14.07;4.07;;;;;;;11.43;100.00;100482.20;5124032;56;1140830;-82
2024/04/05 07:28:11;;;;;;;7.00;2.50;;;;;;;11.48;100.00;100478.19;5112540;56;1142767;-80
2024/04/05 07:33:17;;;;;;;10.33;2.80;;;;;;;11.58;100.00;100484.91;5097435;56;1140763;-81
2024/04/05 07:38:25;;;;;;;10.27;2.43;;;;;;;11.68;100.00;100489.80;5148872;56;1142908;-81
2024/04/05 07:43:31;;;;;;;19.17;3.60;;;;;;;11.83;100.00;100483.75;5085285;56;1142817;-82
2024/04/05 07:48:37;;;;;;;6.00;2.30;;;;;;;11.94;100.00;100503.56;5093279;56;1143000;-80
2024/04/05 07:53:42;;;;;;;4.57;1.77;;;;;;;12.06;100.00;100501.23;5101483;56;1140760;-79
2024/04/05 07:58:49;;;;;;;6.87;1.90;;;;;;;12.17;100.00;100505.14;5076183;56;1140579;-81
2024/04/05 08:03:54;;;;;;;7.50;3.33;;;;;;;12.27;100.00;100506.52;5043353;56;1141042;-79
2024/04/05 08:09:00;;;;;;;14.60;1.90;;;;;;;12.44;100.00;100509.06;5076050;57;1140938;-81
2024/04/05 08:14:07;;;;;;;5.83;1.73;;;;;;;12.60;100.00;100505.45;5029015;57;1143176;-81
2024/04/05 08:19:13;;;;;;;12.67;2.97;;;;;;;12.71;100.00;100513.31;5024997;57;1140757;-81
2024/04/05 08:24:19;;;;;;;7.87;2.20;;;;;;;12.87;100.00;100505.70;5071974;57;1142788;-80
2024/04/05 08:29:27;;;;;;;9.08;2.65;;;;;;;13.00;100.00;100504.13;5056095;57;1140955;-80
2024/04/05 08:34:34;;;;;;;13.43;3.17;;;;;;;13.16;100.00;100505.82;5051553;56;1140749;-80
2024/04/05 08:39:40;;;;;;;13.30;2.73;;;;;;;13.30;100.00;100509.42;5004358;57;1142808;-81
2024/04/05 08:44:53;;;;;;;12.80;2.30;;;;;;;13.41;100.00;100507.16;5006003;57;1142756;-81
2024/04/05 08:49:58;;;;;;;14.95;2.05;;;;;;;13.52;100.00;100497.72;5033710;56;1142788;-80
2024/04/05 08:55:06;;;;;;;11.68;3.10;;;;;;;13.57;100.00;100510.11;5034191;57;1142990;-79
2024/04/05 09:00:15;;;;;;;13.03;2.97;;;;;;;13.70;100.00;100509.34;5039269;56;1143089;-80
2024/04/05 09:05:23;;;;;;;25.30;3.75;;;;;;;13.95;100.00;100508.42;5118627;56;1143140;-79
2024/04/05 09:10:29;;;;;;;9.13;2.60;;;;;;;14.08;100.00;100512.47;5126681;56;1142869;-80
2024/04/05 09:15:35;;;;;;;10.70;2.37;;;;;;;14.11;100.00;100507.36;5112164;56;1140642;-81
2024/04/05 09:20:41;;;;;;;17.60;4.05;;;;;;;14.20;100.00;100497.22;4950239;57;1143642;-79
2024/04/05 09:25:48;;;;;;;18.70;4.00;;;;;;;14.17;100.00;100486.86;5040455;57;1142873;-81
2024/04/05 09:31:00;;;;;;;15.20;3.00;;;;;;;14.21;100.00;100497.53;5041291;57;1143001;-81
2024/04/05 09:36:08;;;;;;;16.27;4.00;;;;;;;14.42;100.00;100499.56;5061291;57;1142968;-80
2024/04/05 09:41:15;;;;;;;11.10;2.53;;;;;;;14.84;100.00;100498.29;5041039;57;1142657;-81
2024/04/05 09:46:24;;;;;;;12.50;2.87;;;;;;;15.11;100.00;100496.99;5041352;57;1142785;-79
2024/04/05 09:51:46;;;;;;;12.90;2.92;;;;;;;15.24;100.00;100497.47;5018749;57;1143064;-81
2024/04/05 09:56:53;;;;;;;15.20;4.10;;;;;;;15.51;100.00;100495.75;5090447;56;1142992;-78
2024/04/05 10:01:59;;;;;;;10.10;2.65;;;;;;;15.81;100.00;100495.41;5085487;56;1142748;-81
2024/04/05 10:07:10;;;;;;;9.90;2.30;;;;;;;15.82;100.00;100491.25;5062307;56;1142998;-78
2024/04/05 10:12:22;;;;;;;11.43;3.10;;;;;;;15.74;100.00;100476.50;5039641;56;1141105;-82
2024/04/05 10:17:30;;;;;;;9.78;2.42;;;;;;;15.88;100.00;100486.31;5058069;56;1142888;-81
2024/04/05 10:22:39;;;;;;;11.33;2.77;;;;;;;16.06;100.00;100483.94;5125990;56;1140781;-81
2024/04/05 10:27:45;;;;;;;12.57;2.20;;;;;;;16.17;100.00;100500.22;5041831;56;1142862;-82
2024/04/05 10:32:58;;;;;;;14.57;2.47;;;;;;;16.19;100.00;100492.36;5042484;56;1142851;-81
2024/04/05 10:38:05;;;;;;;18.65;3.02;;;;;;;16.31;100.00;100489.47;5041693;57;1142822;-83
2024/04/05 10:43:14;;;;;;;10.13;2.77;;;;;;;16.52;100.00;100499.26;5061357;57;1142818;-83
2024/04/05 10:48:21;;;;;;;9.13;2.10;;;;;;;16.70;100.00;100496.06;5041780;57;1142569;-82
2024/04/05 10:53:29;;;;;;;14.10;2.73;;;;;;;16.88;100.00;100500.83;5046090;56;1141439;-82
2024/04/05 10:58:38;;;;;;;20.10;6.20;;;;;;;17.10;100.00;100503.44;5083623;56;1142915;-81
2024/04/05 11:03:43;;;;;;;8.23;2.23;;;;;;;17.29;100.00;100521.02;5055843;56;1143086;-80
2024/04/05 11:08:55;;;;;;;9.17;3.00;;;;;;;17.21;100.00;100511.66;5055419;56;1140752;-80
2024/04/05 11:14:04;;;;;;;30.23;7.23;;;;;;;17.12;100.00;100515.28;5052314;56;1140933;-81
2024/04/05 11:19:11;;;;;;;16.67;4.57;;;;;;;17.03;100.00;100512.25;5072458;57;1142913;-79
2024/04/05 11:24:18;;;;;;;15.47;3.17;;;;;;;16.91;100.00;100516.21;5107314;56;1142947;-80
2024/04/05 11:29:24;;;;;;;12.82;2.70;;;;;;;16.94;100.00;100503.88;5058924;56;1142853;-80
2024/04/05 11:34:30;;;;;;;10.97;2.57;;;;;;;17.16;100.00;100500.11;5072563;57;1143135;-81
2024/04/05 11:39:35;;;;;;;15.43;3.43;;;;;;;17.43;100.00;100494.16;5052747;57;1142860;-83
2024/04/05 11:44:41;;;;;;;12.03;3.93;;;;;;;17.39;100.00;100507.54;5052642;57;1142992;-83
2024/04/05 11:49:48;;;;;;;12.00;3.33;;;;;;;17.30;100.00;100496.47;5115358;56;1142885;-81
2024/04/05 11:54:53;;;;;;;7.37;1.57;;;;;;;17.02;100.00;100508.73;5150419;56;1142846;-81
2024/04/05 11:59:59;;;;;;;11.93;3.00;;;;;;;16.85;100.00;100489.13;5092259;56;1140564;-81
2024/04/05 12:05:06;;;;;;;12.17;3.07;;;;;;;16.71;100.00;100497.73;5054930;56;1143130;-83
2024/04/05 12:10:12;;;;;;;12.13;3.33;;;;;;;16.61;100.00;100499.66;5117064;56;1143097;-83
2024/04/05 12:15:17;;;;;;;9.03;3.17;;;;;;;16.56;100.00;100504.63;5110707;56;1143172;-80
2024/04/05 12:20:23;;;;;;;8.33;1.97;;;;;;;16.45;100.00;100507.58;5121413;56;1140769;-82
2024/04/05 12:25:29;;;;;;;8.75;1.72;;;;;;;16.34;100.00;100511.84;5159106;56;1140986;-82
2024/04/05 12:30:37;;;;;;;6.63;2.17;;;;;;;16.30;100.00;100509.14;5142446;56;1140688;-84
2024/04/05 12:35:43;;;;;;;11.67;2.73;;;;;;;16.36;100.00;100499.16;5142134;56;1141173;-81
2024/04/05 12:40:57;;;;;;;8.17;1.60;;;;;;;16.61;100.00;100480.14;5143064;56;1143264;-82
2024/04/05 12:46:05;;;;;;;7.83;1.67;;;;;;;16.85;100.00;100458.41;5162969;56;1141120;-83
2024/04/05 12:51:11;;;;;;;8.20;1.73;;;;;;;16.99;100.00;100457.45;5143114;56;1140711;-84
2024/04/05 12:56:17;;;;;;;15.53;2.30;;;;;;;17.01;100.00;100456.80;5127014;56;1140998;-80
2024/04/05 13:01:22;;;;;;;13.70;2.93;;;;;;;16.99;100.00;100454.78;5156536;56;1142794;-82
2024/04/05 13:06:29;;;;;;;12.88;2.30;;;;;;;16.96;100.00;100455.94;5140947;56;1142914;-81
2024/04/05 13:11:34;;;;;;;12.50;2.70;;;;;;;17.01;100.00;100445.61;5142824;56;1143022;-83
2024/04/05 13:16:40;;;;;;;6.83;1.53;;;;;;;17.24;100.00;100443.18;5103723;56;1142743;-80
2024/04/05 13:21:46;;;;;;;9.93;2.03;;;;;;;17.49;100.00;100445.38;5055286;56;1260767;-85
2024/04/05 13:26:52;;;;;;;12.13;2.10;;;;;;;17.53;100.00;100433.36;5057894;56;1140981;-83
2024/04/05 13:31:57;;;;;;;10.05;2.15;;;;;;;17.52;100.00;100429.85;5060140;56;1142829;-81
2024/04/05 13:37:03;;;;;;;8.20;2.60;;;;;;;17.46;100.00;100441.20;5141231;56;1142930;-83
2024/04/05 13:42:09;;;;;;;13.33;3.77;;;;;;;17.51;100.00;100424.17;5124161;56;1140975;-85
2024/04/05 13:47:14;;;;;;;8.03;2.17;;;;;;;17.78;100.00;100415.00;5142672;56;1143030;-81
2024/04/05 13:52:21;;;;;;;5.50;1.90;;;;;;;17.96;100.00;100413.48;5182936;56;1140718;-84
2024/04/05 13:57:27;;;;;;;12.30;2.35;;;;;;;18.02;100.00;100393.25;5054754;57;1140712;-82
2024/04/05 14:02:33;;;;;;;25.03;2.63;;;;;;;18.05;100.00;100380.84;5141312;56;1142742;-81
2024/04/05 14:07:38;;;;;;;9.70;1.92;;;;;;;18.14;100.00;100384.69;5127614;56;1143182;-81
2024/04/05 14:12:44;;;;;;;12.30;2.63;;;;;;;18.08;100.00;100377.33;5118889;56;1140933;-80
2024/04/05 14:17:50;;;;;;;14.10;3.20;;;;;;;18.01;100.00;100375.52;5132726;56;1142766;-83
2024/04/05 14:22:56;;;;;;;13.50;4.35;;;;;;;17.98;100.00;100367.83;5133665;56;1142853;-83
2024/04/05 14:28:02;;;;;;;17.42;3.58;;;;;;;18.04;100.00;100363.11;5155394;55;1143032;-82
2024/04/05 14:33:07;;;;;;;10.23;3.27;;;;;;;18.09;100.00;100361.61;5142281;56;1142813;-83
2024/04/05 14:38:13;;;;;;;12.68;3.33;;;;;;;18.14;100.00;100351.73;5095058;56;1142964;-83
2024/04/05 14:43:19;;;;;;;9.28;3.50;;;;;;;18.14;100.00;100337.01;5077540;56;1142654;-82
2024/04/05 14:48:24;;;;;;;10.10;3.23;;;;;;;18.19;100.00;100342.16;5103796;56;1140873;-82
2024/04/05 14:53:32;;;;;;;12.20;2.90;;;;;;;18.17;100.00;100358.92;5142469;56;1142854;-82
2024/04/05 14:58:38;;;;;;;8.33;2.12;;;;;;;18.09;100.00;100338.86;5131164;56;1142965;-81
2024/04/05 15:03:44;;;;;;;10.40;4.63;;;;;;;18.07;100.00;100345.38;5080893;56;1140571;-83
2024/04/05 15:08:50;;;;;;;12.23;4.22;;;;;;;18.01;100.00;100335.37;5078245;56;1142978;-81
2024/04/05 15:13:57;;;;;;;20.40;8.30;;;;;;;18.01;100.00;100321.50;5108687;56;1143056;-82
2024/04/05 15:19:03;;;;;;;11.60;4.43;;;;;;;18.04;100.00;100317.62;5146449;56;1143164;-82
2024/04/05 15:24:09;;;;;;;12.60;6.07;;;;;;;17.99;100.00;100326.69;5088172;56;1143051;-84
2024/04/05 15:29:15;;;;;;;14.76;5.56;;;;;;;17.93;100.00;100321.00;5080742;56;1142992;-82
2024/04/05 15:34:20;;;;;;;17.23;5.90;;;;;;;17.81;100.00;100322.88;5111106;56;1142735;-84
2024/04/05 15:39:26;;;;;;;19.07;5.73;;;;;;;17.81;100.00;100322.88;5055355;56;1142688;-83
2024/04/05 15:44:31;;;;;;;8.20;3.58;;;;;;;17.73;100.00;100317.52;4959921;56;1142977;-82
2024/04/05 15:49:37;;;;;;;12.10;5.03;;;;;;;17.65;100.00;100318.89;5062289;56;1140878;-80
2024/04/05 15:54:43;;;;;;;16.02;5.17;;;;;;;17.62;100.00;100311.17;5038626;56;1142763;-80
2024/04/05 15:59:49;;;;;;;19.13;5.53;;;;;;;17.56;100.00;100314.03;5079586;56;1142871;-82
2024/04/05 16:04:54;;;;;;;22.42;9.80;;;;;;;17.52;100.00;100315.37;5116649;56;1142797;-80
2024/04/05 16:10:04;;;;;;;16.97;6.10;;;;;;;17.47;100.00;100313.69;5133680;56;1143335;-83
2024/04/05 16:15:12;;;;;;;13.77;3.87;;;;;;;17.44;100.00;100301.98;5057429;56;1143119;-83
2024/04/05 16:20:16;;;;;;;9.53;2.60;;;;;;;17.40;100.00;100303.35;5122367;56;1143236;-81
2024/04/05 16:25:22;;;;;;;14.93;4.57;;;;;;;17.39;100.00;100307.86;5083592;56;1140951;-79
2024/04/05 16:30:31;;;;;;;15.23;3.00;;;;;;;17.36;100.00;100300.17;5098270;56;1142907;-83
2024/04/05 16:35:37;;;;;;;17.52;6.40;;;;;;;17.31;100.00;100288.30;5131151;56;1143111;-81
2024/04/05 16:40:46;;;;;;;15.32;5.15;;;;;;;17.28;100.00;100276.10;5073597;56;1142992;-81
2024/04/05 16:45:52;;;;;;;8.03;2.80;;;;;;;17.27;100.00;100269.58;5107697;56;1142996;-82
2024/04/05 16:50:57;;;;;;;11.12;3.10;;;;;;;17.26;100.00;100262.59;5133540;56;1140973;-82
2024/04/05 16:56:04;;;;;;;9.57;3.03;;;;;;;17.25;100.00;100259.59;5158213;56;1143020;-80
2024/04/05 17:01:19;;;;;;;12.00;3.73;;;;;;;17.25;100.00;100243.55;5138211;56;1141276;-83
2024/04/05 17:06:26;;;;;;;22.73;6.33;;;;;;;17.23;100.00;100251.73;5137862;56;1143553;-84
2024/04/05 17:11:32;;;;;;;15.00;4.80;;;;;;;17.22;100.00;100240.71;5157595;56;1143341;-82
2024/04/05 17:16:38;;;;;;;14.83;5.63;;;;;;;17.19;100.00;100232.52;5137992;56;1142941;-80
2024/04/05 17:21:45;;;;;;;18.45;5.95;;;;;;;17.17;100.00;100239.87;5065433;56;1143256;-82
2024/04/05 17:26:51;;;;;;;26.70;9.24;;;;;;;17.11;100.00;100249.88;4970728;57;1143225;-83
2024/04/05 17:31:58;;;;;;;12.53;4.27;;;;;;;17.04;100.00;100252.06;4990071;57;1142700;-83
2024/04/05 17:37:04;;;;;;;29.73;11.97;;;;;;;16.96;100.00;100250.75;5078407;56;1142731;-82
2024/04/05 17:42:10;;;;;;;39.10;21.17;;;;;;;16.92;100.00;100247.56;5119514;56;1145225;-80
2024/04/05 17:47:16;;;;;;;18.20;8.43;;;;;;;16.88;100.00;100247.05;5083249;56;1145249;-83
2024/04/05 17:52:22;;;;;;;9.43;3.43;;;;;;;16.83;100.00;100226.67;5055211;57;1143119;-83
2024/04/05 17:57:27;;;;;;;12.73;3.67;;;;;;;16.76;100.00;100186.96;5055351;57;1141041;-80
2024/04/05 18:02:33;;;;;;;15.70;4.50;;;;;;;16.72;100.00;100180.27;5099369;56;1142705;-82
2024/04/05 18:07:39;;;;;;;13.08;5.45;;;;;;;16.69;100.00;100183.27;5039565;57;1142874;-82
2024/04/05 18:12:45;;;;;;;19.07;8.03;;;;;;;16.66;100.00;100184.94;4973034;58;1142867;-80
2024/04/05 18:17:51;;;;;;;20.53;9.60;;;;;;;16.63;100.00;100185.79;5050095;57;1143065;-81
2024/04/05 18:22:56;;;;;;;13.60;7.67;;;;;;;16.60;100.00;100184.25;5073595;56;1142922;-80
2024/04/05 18:28:02;;;;;;;151.43;86.73;;;;;;;16.59;100.00;100184.41;5076299;56;1143156;-80
2024/04/05 18:33:08;;;;;;;97.77;48.73;;;;;;;16.57;100.00;100188.58;5054920;57;1147453;-78
2024/04/05 18:38:14;;;;;;;224.87;73.57;;;;;;;16.57;100.00;100196.59;5075049;57;1144838;-80
2024/04/05 18:43:21;;;;;;;201.93;62.17;;;;;;;16.54;100.00;100191.58;5053220;57;1147512;-81
2024/04/05 18:48:27;;;;;;;186.77;61.27;;;;;;;16.54;100.00;100168.38;5055208;56;1147019;-80
2024/04/05 18:53:33;;;;;;;99.87;38.13;;;;;;;16.48;100.00;100135.69;5074686;56;1147145;-79
2024/04/05 18:58:39;;;;;;;92.50;36.73;;;;;;;16.48;100.00;100135.69;5042693;57;1145190;-78
2024/04/05 19:03:46;;;;;;;123.78;55.60;;;;;;;16.54;100.00;100151.03;5074031;56;1145242;-80
2024/04/05 19:08:51;;;;;;;106.47;42.57;;;;;;;16.53;100.00;100145.35;5054088;57;1146920;-82
2024/04/05 19:13:57;;;;;;;102.37;37.10;;;;;;;16.51;100.00;100146.52;5068579;57;1147121;-82
2024/04/05 19:19:10;;;;;;;53.17;21.77;;;;;;;16.51;100.00;100133.16;5054933;57;1147020;-82
2024/04/05 19:24:16;;;;;;;40.87;17.23;;;;;;;16.48;100.00;100131.69;5095673;56;1145290;-83
2024/04/05 19:29:22;;;;;;;40.40;17.04;;;;;;;16.46;100.00;100123.51;5146387;56;1145055;-83
2024/04/05 19:34:30;;;;;;;20.13;9.20;;;;;;;16.45;100.00;100124.01;5126669;56;1145242;-82
2024/04/05 19:39:35;;;;;;;22.40;10.77;;;;;;;16.46;100.00;100110.16;5054436;56;1142934;-80
2024/04/05 19:44:41;;;;;;;17.15;6.85;;;;;;;16.46;100.00;100099.48;5060848;56;1145477;-82
2024/04/05 19:49:48;;;;;;;15.10;5.83;;;;;;;16.44;100.00;100074.79;5048912;56;1142796;-83
2024/04/05 19:54:54;;;;;;;12.53;4.60;;;;;;;16.44;100.00;100066.78;5086764;56;1142890;-80
2024/04/05 20:00:00;;;;;;;14.63;4.78;;;;;;;16.41;100.00;100066.61;5083057;56;1142864;-82
2024/04/05 20:05:06;;;;;;;13.13;4.83;;;;;;;16.41;100.00;100069.78;5146818;56;1143028;-80
2024/04/05 20:10:12;;;;;;;20.60;7.97;;;;;;;16.39;100.00;100051.77;5126616;56;1143068;-80
2024/04/05 20:15:17;;;;;;;11.00;5.17;;;;;;;16.37;100.00;100048.42;5102436;56;1143264;-80
2024/04/05 20:20:23;;;;;;;12.60;4.90;;;;;;;16.33;100.00;100049.28;5099311;56;1142943;-82
2024/04/05 20:25:29;;;;;;;10.50;4.57;;;;;;;16.30;100.00;100046.11;5071312;56;1144117;-82
2024/04/05 20:35:58;;;;;;;16.45;5.50;;;;;;;16.28;100.00;100029.42;5118857;56;1142994;-82
2024/04/05 20:41:03;;;;;;;11.00;4.10;;;;;;;16.27;100.00;100020.58;5088668;56;1143110;-83
2024/04/05 20:46:09;;;;;;;13.10;4.00;;;;;;;16.23;100.00;100021.91;5087532;56;1143198;-82
2024/04/05 20:51:15;;;;;;;12.37;3.90;;;;;;;16.17;100.00;100014.09;5081870;56;1143146;-80
2024/04/05 20:56:20;;;;;;;8.17;3.30;;;;;;;16.14;100.00;100022.42;5149061;56;1142634;-83
2024/04/05 21:01:30;;;;;;;18.73;4.90;;;;;;;16.07;100.00;100096.10;5127552;56;1140569;-81
2024/04/05 21:06:36;;;;;;;13.20;4.33;;;;;;;15.83;100.00;100182.24;5126450;56;1143342;-80
2024/04/05 21:11:42;;;;;;;13.00;3.92;;;;;;;15.35;100.00;100174.81;5143264;56;1142635;-80
2024/04/05 21:16:47;;;;;;;17.73;5.03;;;;;;;15.07;100.00;100139.52;5127220;55;1143203;-80
2024/04/05 21:21:54;;;;;;;6.27;2.70;;;;;;;14.85;100.00;100133.86;5102716;56;1142910;-81
2024/04/05 21:27:00;;;;;;;13.90;3.10;;;;;;;14.73;100.00;100102.67;5127385;56;1140686;-80
2024/04/05 21:32:11;;;;;;;6.13;2.90;;;;;;;14.66;100.00;100109.62;5143241;56;1142547;-83
2024/04/05 21:37:13;;;;;;;9.00;2.70;;;;;;;14.56;100.00;100072.44;5085245;56;1140688;-81
2024/04/05 21:42:19;;;;;;;5.93;2.23;;;;;;;14.53;100.00;100049.28;5109785;56;1141019;-80
2024/04/05 21:47:25;;;;;;;9.03;2.30;;;;;;;14.49;100.00;100110.48;5008824;57;1140750;-81
2024/04/05 21:52:31;;;;;;;5.57;2.50;;;;;;;14.35;100.00;100175.19;5037708;57;1140826;-80
2024/04/05 21:57:37;;;;;;;6.03;2.75;;;;;;;14.28;100.00;100166.62;5038417;56;1141068;-78
2024/04/05 22:02:43;;;;;;;7.15;2.62;;;;;;;14.24;100.00;100147.95;5147522;56;1140922;-79
2024/04/05 22:07:48;;;;;;;5.20;2.00;;;;;;;14.22;100.00;100145.44;5093514;56;1140754;-78
2024/04/05 22:12:54;;;;;;;7.03;2.67;;;;;;;14.26;100.00;100140.66;5128180;56;1140744;-81
2024/04/05 22:18:00;;;;;;;5.65;2.42;;;;;;;14.32;100.00;100138.73;5126123;56;1140794;-82
2024/04/05 22:23:06;;;;;;;6.40;2.63;;;;;;;14.38;100.00;100152.25;5146732;56;1140763;-80
2024/04/05 22:28:11;;;;;;;7.37;2.50;;;;;;;14.33;100.00;100162.53;5127680;56;1140715;-78
2024/04/05 22:33:17;;;;;;;4.77;2.17;;;;;;;14.30;100.00;100161.99;5137919;56;1140803;-80
2024/04/05 22:38:23;;;;;;;4.65;2.37;;;;;;;14.25;100.00;100182.87;5103631;56;1140876;-81
2024/04/05 22:43:29;;;;;;;10.73;2.13;;;;;;;14.18;100.00;100197.28;5053933;56;1140820;-79
2024/04/05 22:48:35;;;;;;;7.83;2.53;;;;;;;14.10;100.00;100203.83;5053739;56;1142844;-82
2024/04/05 22:53:41;;;;;;;5.33;2.15;;;;;;;14.05;100.00;100204.27;5073033;56;1140701;-81